createdAt,value
2023-05-18T00:05:12.697Z,81.95
2023-05-18T00:15:15.277Z,80.60
2023-05-18T00:25:17.794Z,81.72
2023-05-18T00:35:20.536Z,82.10
2023-05-18T00:45:23.266Z,81.30
2023-05-18T00:55:28.110Z,82.12
2023-05-18T01:05:31.707Z,83.88
2023-05-18T01:15:40.058Z,82.56
2023-05-18T01:25:56.070Z,82.12
2023-05-18T01:35:58.555Z,81.84
2023-05-18T01:46:10.165Z,82.37
2023-05-18T01:56:14.169Z,83.15
2023-05-18T02:06:16.786Z,82.40
2023-05-18T02:16:20.179Z,83.59
2023-05-18T02:26:22.782Z,82.40
2023-05-18T02:36:28.447Z,83.51
2023-05-18T02:46:31.455Z,82.90
2023-05-18T02:56:34.245Z,82.60
2023-05-18T03:06:47.361Z,82.96
2023-05-18T03:16:54.413Z,82.78
2023-05-18T03:27:01.018Z,83.60
2023-05-18T03:37:04.276Z,82.80
2023-05-18T03:47:08.525Z,81.41
2023-05-18T03:57:11.269Z,82.36
2023-05-18T04:07:16.665Z,81.49
2023-05-18T04:17:23.400Z,81.46
2023-05-18T04:27:25.970Z,81.72
2023-05-18T04:37:28.751Z,79.88
2023-05-18T04:47:31.653Z,79.65
2023-05-18T04:57:35.795Z,79.50
2023-05-18T05:07:38.564Z,78.23
2023-05-18T05:17:41.513Z,78.99
2023-05-18T05:27:45.006Z,77.88
2023-05-18T05:37:48.728Z,77.46
2023-05-18T05:47:52.349Z,76.92
2023-05-18T05:57:56.404Z,76.05
2023-05-18T06:07:59.076Z,76.50
2023-05-18T06:18:02.042Z,77.07
2023-05-18T06:28:05.534Z,76.69
2023-05-18T06:38:18.294Z,76.11
2023-05-18T06:48:24.289Z,74.92
2023-05-18T06:58:26.918Z,74.69
2023-05-18T07:08:32.175Z,74.12
2023-05-18T07:18:34.783Z,73.50
2023-05-18T07:28:37.756Z,74.52
2023-05-18T07:38:40.333Z,73.96
2023-05-18T07:48:43.418Z,72.36
2023-05-18T07:58:46.175Z,73.24
2023-05-18T08:08:48.827Z,73.47
2023-05-18T08:18:51.596Z,73.13
2023-05-18T08:28:55.127Z,73.06
2023-05-18T08:38:57.632Z,73.85
2023-05-18T08:49:02.481Z,74.01
2023-05-18T08:59:08.499Z,73.10
2023-05-18T09:09:12.200Z,73.17
2023-05-18T09:19:14.738Z,74.23
2023-05-18T09:29:19.442Z,73.32
2023-05-18T09:39:21.967Z,74.02
2023-05-18T09:49:24.569Z,73.62
2023-05-18T09:59:27.285Z,72.49
2023-05-18T10:09:29.908Z,71.83
2023-05-18T10:19:36.184Z,72.37
2023-05-18T10:29:39.218Z,72.19
2023-05-18T10:39:45.764Z,73.56
2023-05-18T10:49:49.571Z,74.48
2023-05-18T10:59:52.275Z,74.15
2023-05-18T11:09:55.796Z,74.07
2023-05-18T11:20:06.989Z,73.08
2023-05-18T11:30:30.001Z,73.80
2023-05-18T11:40:49.611Z,72.11
2023-05-18T11:50:56.058Z,70.60
2023-05-18T12:01:01.473Z,69.87
2023-05-18T12:11:04.438Z,71.82
2023-05-18T12:21:07.186Z,72.62
2023-05-18T12:31:10.481Z,73.36
2023-05-18T12:41:27.724Z,73.25
2023-05-18T12:51:35.301Z,74.31
2023-05-18T13:01:46.828Z,73.04
2023-05-18T13:12:06.155Z,74.07
2023-05-18T13:22:09.152Z,74.80
2023-05-18T13:32:11.686Z,73.82
2023-05-18T13:42:14.215Z,75.80
2023-05-18T13:52:16.790Z,75.31
2023-05-18T14:02:19.863Z,76.40
2023-05-18T14:12:22.518Z,77.54
2023-05-18T14:22:26.434Z,77.91
2023-05-18T14:32:29.022Z,77.92
2023-05-18T14:42:31.727Z,80.21
2023-05-18T14:52:34.271Z,79.66
2023-05-18T15:02:37.166Z,81.55
2023-05-18T15:12:39.694Z,83.22
2023-05-18T15:22:42.173Z,82.82
2023-05-18T15:32:45.503Z,84.35
2023-05-18T15:42:48.063Z,85.42
2023-05-18T15:52:51.082Z,85.74
2023-05-18T16:02:53.744Z,85.50
2023-05-18T16:13:00.431Z,86.47
2023-05-18T16:23:03.004Z,86.46
2023-05-18T16:33:05.596Z,85.73
2023-05-18T16:43:08.420Z,85.93
2023-05-18T16:53:11.062Z,85.63
2023-05-18T17:03:13.737Z,85.71
2023-05-18T17:13:16.406Z,85.82
2023-05-18T17:23:18.976Z,87.03
2023-05-18T17:33:21.671Z,88.53
2023-05-18T17:43:24.348Z,88.17
2023-05-18T17:53:26.969Z,86.54
2023-05-18T18:03:29.651Z,84.47
2023-05-18T18:13:32.274Z,85.20
2023-05-18T18:23:35.760Z,85.64
2023-05-18T18:33:38.269Z,87.07
2023-05-18T18:43:40.935Z,86.79
2023-05-18T18:53:43.540Z,89.06
2023-05-18T19:03:46.069Z,89.49
2023-05-18T19:13:48.913Z,90.95
2023-05-18T19:23:51.674Z,91.63
2023-05-18T19:33:54.508Z,91.53
2023-05-18T19:43:57.003Z,90.72
2023-05-18T19:53:59.793Z,90.50
2023-05-18T20:04:02.394Z,90.32
2023-05-18T20:14:05.046Z,89.87
2023-05-18T20:24:07.565Z,89.56
2023-05-18T20:34:10.160Z,90.03
2023-05-18T20:44:17.592Z,89.50
2023-05-18T20:54:21.532Z,88.99
2023-05-18T21:04:24.089Z,88.86
2023-05-18T21:14:26.739Z,88.48
2023-05-18T21:24:29.238Z,87.35
2023-05-18T21:34:31.732Z,88.44
2023-05-18T21:44:34.302Z,90.32
2023-05-18T21:54:37.710Z,89.80
2023-05-18T22:04:40.185Z,89.81
2023-05-18T22:14:42.743Z,91.84
2023-05-18T22:24:45.522Z,91.93
2023-05-18T22:34:48.016Z,91.98
2023-05-18T22:44:51.364Z,91.46
2023-05-18T22:54:53.924Z,94.46
2023-05-18T23:04:56.449Z,93.74
2023-05-18T23:15:02.618Z,92.42
2023-05-18T23:25:08.623Z,93.29
2023-05-18T23:35:13.851Z,95.13
2023-05-18T23:45:16.976Z,94.74
2023-05-18T23:55:24.111Z,95.56
